sensor_id;sensor_type;location;lat;lon;timestamp;temperature;humidity
4651;DHT22;2338;49.602;8.722;2024-01-30T00:01:54;1.80;99.90
4651;DHT22;2338;49.602;8.722;2024-01-30T00:04:40;1.80;99.90
4651;DHT22;2338;49.602;8.722;2024-01-30T00:07:25;1.80;99.90
4651;DHT22;2338;49.602;8.722;2024-01-30T00:10:11;1.80;99.90
4651;DHT22;2338;49.602;8.722;2024-01-30T00:12:57;1.80;99.90
4651;DHT22;2338;49.602;8.722;2024-01-30T00:15:42;1.80;99.90
4651;DHT22;2338;49.602;8.722;2024-01-30T00:18:29;1.80;99.90
4651;DHT22;2338;49.602;8.722;2024-01-30T00:21:15;1.80;99.90
4651;DHT22;2338;49.602;8.722;2024-01-30T00:24:01;1.90;99.90
4651;DHT22;2338;49.602;8.722;2024-01-30T00:26:47;1.80;99.90
4651;DHT22;2338;49.602;8.722;2024-01-30T00:29:33;1.80;99.90
4651;DHT22;2338;49.602;8.722;2024-01-30T00:32:18;1.80;99.90
4651;DHT22;2338;49.602;8.722;2024-01-30T00:35:06;1.80;99.90
4651;DHT22;2338;49.602;8.722;2024-01-30T00:37:54;1.70;99.90
4651;DHT22;2338;49.602;8.722;2024-01-30T00:40:39;1.70;99.90
4651;DHT22;2338;49.602;8.722;2024-01-30T00:43:25;1.70;99.90
4651;DHT22;2338;49.602;8.722;2024-01-30T00:46:11;1.70;99.90
4651;DHT22;2338;49.602;8.722;2024-01-30T00:48:56;1.70;99.90
4651;DHT22;2338;49.602;8.722;2024-01-30T00:51:44;1.70;99.90
4651;DHT22;2338;49.602;8.722;2024-01-30T00:54:29;1.70;99.90
4651;DHT22;2338;49.602;8.722;2024-01-30T00:57:15;1.70;99.90
4651;DHT22;2338;49.602;8.722;2024-01-30T01:00:00;1.80;99.90
4651;DHT22;2338;49.602;8.722;2024-01-30T01:02:46;1.70;99.90
4651;DHT22;2338;49.602;8.722;2024-01-30T01:05:32;1.70;99.90
4651;DHT22;2338;49.602;8.722;2024-01-30T01:08:18;1.70;99.90
4651;DHT22;2338;49.602;8.722;2024-01-30T01:11:04;1.70;99.90
4651;DHT22;2338;49.602;8.722;2024-01-30T01:13:50;1.60;99.90
4651;DHT22;2338;49.602;8.722;2024-01-30T01:16:35;1.60;99.90
4651;DHT22;2338;49.602;8.722;2024-01-30T01:19:22;1.60;99.90
4651;DHT22;2338;49.602;8.722;2024-01-30T01:22:07;1.60;99.90
4651;DHT22;2338;49.602;8.722;2024-01-30T01:24:55;1.70;99.90
4651;DHT22;2338;49.602;8.722;2024-01-30T01:27:40;1.60;99.90
4651;DHT22;2338;49.602;8.722;2024-01-30T01:30:27;1.60;99.90
4651;DHT22;2338;49.602;8.722;2024-01-30T01:33:13;1.70;99.90
4651;DHT22;2338;49.602;8.722;2024-01-30T01:35:59;1.70;99.90
4651;DHT22;2338;49.602;8.722;2024-01-30T01:38:46;1.80;99.90
4651;DHT22;2338;49.602;8.722;2024-01-30T01:41:33;1.70;99.90
4651;DHT22;2338;49.602;8.722;2024-01-30T01:44:19;1.70;99.90
4651;DHT22;2338;49.602;8.722;2024-01-30T01:47:05;1.70;99.90
4651;DHT22;2338;49.602;8.722;2024-01-30T01:49:51;1.60;99.90
4651;DHT22;2338;49.602;8.722;2024-01-30T01:52:37;1.50;99.90
4651;DHT22;2338;49.602;8.722;2024-01-30T01:55:24;1.60;99.90
4651;DHT22;2338;49.602;8.722;2024-01-30T01:58:14;1.60;99.90
4651;DHT22;2338;49.602;8.722;2024-01-30T02:01:00;1.60;99.90
4651;DHT22;2338;49.602;8.722;2024-01-30T02:03:46;1.60;99.90
4651;DHT22;2338;49.602;8.722;2024-01-30T02:06:32;1.60;99.90
4651;DHT22;2338;49.602;8.722;2024-01-30T02:09:17;1.50;99.90
4651;DHT22;2338;49.602;8.722;2024-01-30T02:12:03;1.60;99.90
4651;DHT22;2338;49.602;8.722;2024-01-30T02:14:50;1.50;99.90
4651;DHT22;2338;49.602;8.722;2024-01-30T02:17:37;1.50;99.90
4651;DHT22;2338;49.602;8.722;2024-01-30T02:20:24;1.40;99.90
4651;DHT22;2338;49.602;8.722;2024-01-30T02:23:12;1.50;99.90
4651;DHT22;2338;49.602;8.722;2024-01-30T02:25:58;1.50;99.90
4651;DHT22;2338;49.602;8.722;2024-01-30T02:28:43;1.60;99.90
4651;DHT22;2338;49.602;8.722;2024-01-30T02:31:29;1.60;99.90
4651;DHT22;2338;49.602;8.722;2024-01-30T02:34:15;1.40;99.90
4651;DHT22;2338;49.602;8.722;2024-01-30T02:37:00;1.40;99.90
4651;DHT22;2338;49.602;8.722;2024-01-30T02:39:47;1.30;99.90
4651;DHT22;2338;49.602;8.722;2024-01-30T02:42:33;1.40;99.90
4651;DHT22;2338;49.602;8.722;2024-01-30T02:45:18;1.40;99.90
4651;DHT22;2338;49.602;8.722;2024-01-30T02:48:04;1.40;99.90
4651;DHT22;2338;49.602;8.722;2024-01-30T02:50:50;1.40;99.90
4651;DHT22;2338;49.602;8.722;2024-01-30T02:53:36;1.30;99.90
4651;DHT22;2338;49.602;8.722;2024-01-30T02:56:23;1.20;99.90
4651;DHT22;2338;49.602;8.722;2024-01-30T02:59:09;1.20;99.90
4651;DHT22;2338;49.602;8.722;2024-01-30T03:01:54;1.20;99.90
4651;DHT22;2338;49.602;8.722;2024-01-30T03:04:41;1.20;99.90
4651;DHT22;2338;49.602;8.722;2024-01-30T03:07:26;1.20;99.90
4651;DHT22;2338;49.602;8.722;2024-01-30T03:10:12;1.30;99.90
4651;DHT22;2338;49.602;8.722;2024-01-30T03:12:59;1.30;99.90
4651;DHT22;2338;49.602;8.722;2024-01-30T03:15:44;1.30;99.90
4651;DHT22;2338;49.602;8.722;2024-01-30T03:18:30;1.20;99.90
4651;DHT22;2338;49.602;8.722;2024-01-30T03:21:16;1.10;99.90
4651;DHT22;2338;49.602;8.722;2024-01-30T03:24:02;1.10;99.90
4651;DHT22;2338;49.602;8.722;2024-01-30T03:26:47;1.20;99.90
4651;DHT22;2338;49.602;8.722;2024-01-30T03:29:34;1.20;99.90
4651;DHT22;2338;49.602;8.722;2024-01-30T03:32:20;1.20;99.90
4651;DHT22;2338;49.602;8.722;2024-01-30T03:35:06;1.20;99.90
4651;DHT22;2338;49.602;8.722;2024-01-30T03:37:52;1.10;99.90
4651;DHT22;2338;49.602;8.722;2024-01-30T03:40:38;1.10;99.90
4651;DHT22;2338;49.602;8.722;2024-01-30T03:43:24;1.10;99.90
4651;DHT22;2338;49.602;8.722;2024-01-30T03:46:11;1.00;99.90
4651;DHT22;2338;49.602;8.722;2024-01-30T03:48:57;1.00;99.90
4651;DHT22;2338;49.602;8.722;2024-01-30T03:51:43;1.00;99.90
4651;DHT22;2338;49.602;8.722;2024-01-30T03:54:29;1.00;99.90
4651;DHT22;2338;49.602;8.722;2024-01-30T03:57:14;1.00;99.90
4651;DHT22;2338;49.602;8.722;2024-01-30T04:00:00;1.10;99.90
4651;DHT22;2338;49.602;8.722;2024-01-30T04:02:50;1.00;99.90
4651;DHT22;2338;49.602;8.722;2024-01-30T04:05:36;0.90;99.90
4651;DHT22;2338;49.602;8.722;2024-01-30T04:08:22;0.90;99.90
4651;DHT22;2338;49.602;8.722;2024-01-30T04:11:07;0.90;99.90
4651;DHT22;2338;49.602;8.722;2024-01-30T04:13:53;0.90;99.90
4651;DHT22;2338;49.602;8.722;2024-01-30T04:16:38;1.00;99.90
4651;DHT22;2338;49.602;8.722;2024-01-30T04:19:25;1.00;99.90
4651;DHT22;2338;49.602;8.722;2024-01-30T04:22:11;1.10;99.90
4651;DHT22;2338;49.602;8.722;2024-01-30T04:24:57;1.00;99.90
4651;DHT22;2338;49.602;8.722;2024-01-30T04:27:42;1.00;99.90
4651;DHT22;2338;49.602;8.722;2024-01-30T04:30:27;0.90;99.90
4651;DHT22;2338;49.602;8.722;2024-01-30T04:33:13;1.00;99.90
4651;DHT22;2338;49.602;8.722;2024-01-30T04:36:00;1.00;99.90
4651;DHT22;2338;49.602;8.722;2024-01-30T04:38:45;1.00;99.90
4651;DHT22;2338;49.602;8.722;2024-01-30T04:41:31;1.00;99.90
4651;DHT22;2338;49.602;8.722;2024-01-30T04:44:16;1.10;99.90
4651;DHT22;2338;49.602;8.722;2024-01-30T04:47:02;1.10;99.90
4651;DHT22;2338;49.602;8.722;2024-01-30T04:49:51;1.10;99.90
4651;DHT22;2338;49.602;8.722;2024-01-30T04:52:38;1.00;99.90
4651;DHT22;2338;49.602;8.722;2024-01-30T04:55:24;1.00;99.90
4651;DHT22;2338;49.602;8.722;2024-01-30T04:58:09;0.90;99.90
4651;DHT22;2338;49.602;8.722;2024-01-30T05:00:55;0.90;99.90
4651;DHT22;2338;49.602;8.722;2024-01-30T05:03:40;0.90;99.90
4651;DHT22;2338;49.602;8.722;2024-01-30T05:06:26;0.80;99.90
4651;DHT22;2338;49.602;8.722;2024-01-30T05:09:13;0.80;99.90
4651;DHT22;2338;49.602;8.722;2024-01-30T05:11:58;0.80;99.90
4651;DHT22;2338;49.602;8.722;2024-01-30T05:14:44;0.80;99.90
4651;DHT22;2338;49.602;8.722;2024-01-30T05:17:29;0.80;99.90
4651;DHT22;2338;49.602;8.722;2024-01-30T05:20:15;0.80;99.90
4651;DHT22;2338;49.602;8.722;2024-01-30T05:23:00;0.80;99.90
4651;DHT22;2338;49.602;8.722;2024-01-30T05:25:47;0.80;99.90
4651;DHT22;2338;49.602;8.722;2024-01-30T05:28:32;0.80;99.90
4651;DHT22;2338;49.602;8.722;2024-01-30T05:31:18;0.70;99.90
4651;DHT22;2338;49.602;8.722;2024-01-30T05:34:05;0.70;99.90
4651;DHT22;2338;49.602;8.722;2024-01-30T05:36:51;0.70;99.90
4651;DHT22;2338;49.602;8.722;2024-01-30T05:39:36;0.70;99.90
4651;DHT22;2338;49.602;8.722;2024-01-30T05:42:23;0.70;99.90
4651;DHT22;2338;49.602;8.722;2024-01-30T05:45:09;0.70;99.90
4651;DHT22;2338;49.602;8.722;2024-01-30T05:47:55;0.70;99.90
4651;DHT22;2338;49.602;8.722;2024-01-30T05:50:40;0.70;99.90
4651;DHT22;2338;49.602;8.722;2024-01-30T05:53:26;0.70;99.90
4651;DHT22;2338;49.602;8.722;2024-01-30T05:56:12;0.70;99.90
4651;DHT22;2338;49.602;8.722;2024-01-30T05:58:59;0.70;99.90
4651;DHT22;2338;49.602;8.722;2024-01-30T06:01:46;0.80;99.90
4651;DHT22;2338;49.602;8.722;2024-01-30T06:04:32;0.80;99.90
4651;DHT22;2338;49.602;8.722;2024-01-30T06:07:17;0.70;99.90
4651;DHT22;2338;49.602;8.722;2024-01-30T06:10:04;0.80;99.90
4651;DHT22;2338;49.602;8.722;2024-01-30T06:12:49;0.80;99.90
4651;DHT22;2338;49.602;8.722;2024-01-30T06:15:37;0.70;99.90
4651;DHT22;2338;49.602;8.722;2024-01-30T06:18:22;0.70;99.90
4651;DHT22;2338;49.602;8.722;2024-01-30T06:21:08;0.70;99.90
4651;DHT22;2338;49.602;8.722;2024-01-30T06:23:53;0.60;99.90
4651;DHT22;2338;49.602;8.722;2024-01-30T06:26:39;0.60;99.90
4651;DHT22;2338;49.602;8.722;2024-01-30T06:29:26;0.70;99.90
4651;DHT22;2338;49.602;8.722;2024-01-30T06:32:13;0.70;99.90
4651;DHT22;2338;49.602;8.722;2024-01-30T06:34:59;0.80;99.90
4651;DHT22;2338;49.602;8.722;2024-01-30T06:37:44;0.80;99.90
4651;DHT22;2338;49.602;8.722;2024-01-30T06:40:30;0.80;99.90
4651;DHT22;2338;49.602;8.722;2024-01-30T06:43:16;0.80;99.90
4651;DHT22;2338;49.602;8.722;2024-01-30T06:46:02;0.80;99.90
4651;DHT22;2338;49.602;8.722;2024-01-30T06:48:49;0.70;99.90
4651;DHT22;2338;49.602;8.722;2024-01-30T06:51:34;0.60;99.90
4651;DHT22;2338;49.602;8.722;2024-01-30T06:54:20;0.60;99.90
4651;DHT22;2338;49.602;8.722;2024-01-30T06:57:06;0.60;99.90
4651;DHT22;2338;49.602;8.722;2024-01-30T06:59:52;0.50;99.90
4651;DHT22;2338;49.602;8.722;2024-01-30T07:02:38;0.50;99.90
4651;DHT22;2338;49.602;8.722;2024-01-30T07:05:25;0.60;99.90
4651;DHT22;2338;49.602;8.722;2024-01-30T07:08:11;0.60;99.90
4651;DHT22;2338;49.602;8.722;2024-01-30T07:10:56;0.60;99.90
4651;DHT22;2338;49.602;8.722;2024-01-30T07:13:42;0.60;99.90
4651;DHT22;2338;49.602;8.722;2024-01-30T07:16:28;0.60;99.90
4651;DHT22;2338;49.602;8.722;2024-01-30T07:19:14;0.60;99.90
4651;DHT22;2338;49.602;8.722;2024-01-30T07:22:01;0.60;99.90
4651;DHT22;2338;49.602;8.722;2024-01-30T07:24:46;0.60;99.90
4651;DHT22;2338;49.602;8.722;2024-01-30T07:27:33;0.70;99.90
4651;DHT22;2338;49.602;8.722;2024-01-30T07:30:19;0.70;99.90
4651;DHT22;2338;49.602;8.722;2024-01-30T07:33:04;0.70;99.90
4651;DHT22;2338;49.602;8.722;2024-01-30T07:35:52;0.80;99.90
4651;DHT22;2338;49.602;8.722;2024-01-30T07:38:39;0.90;99.90
4651;DHT22;2338;49.602;8.722;2024-01-30T07:41:25;1.10;99.90
4651;DHT22;2338;49.602;8.722;2024-01-30T07:44:11;1.10;99.90
4651;DHT22;2338;49.602;8.722;2024-01-30T07:46:56;1.00;99.90
4651;DHT22;2338;49.602;8.722;2024-01-30T07:49:42;0.90;99.90
4651;DHT22;2338;49.602;8.722;2024-01-30T07:52:28;0.90;99.90
4651;DHT22;2338;49.602;8.722;2024-01-30T07:55:15;1.00;99.90
4651;DHT22;2338;49.602;8.722;2024-01-30T07:58:01;1.00;99.90
4651;DHT22;2338;49.602;8.722;2024-01-30T08:00:48;1.10;99.90
4651;DHT22;2338;49.602;8.722;2024-01-30T08:03:33;1.00;99.90
4651;DHT22;2338;49.602;8.722;2024-01-30T08:06:20;1.10;99.90
4651;DHT22;2338;49.602;8.722;2024-01-30T08:09:06;1.10;99.90
4651;DHT22;2338;49.602;8.722;2024-01-30T08:11:53;1.30;99.90
4651;DHT22;2338;49.602;8.722;2024-01-30T08:14:38;1.40;99.90
4651;DHT22;2338;49.602;8.722;2024-01-30T08:17:25;1.50;99.90
4651;DHT22;2338;49.602;8.722;2024-01-30T08:20:11;1.50;99.90
4651;DHT22;2338;49.602;8.722;2024-01-30T08:22:57;1.70;99.90
4651;DHT22;2338;49.602;8.722;2024-01-30T08:25:44;1.80;99.90
4651;DHT22;2338;49.602;8.722;2024-01-30T08:28:31;1.70;99.90
4651;DHT22;2338;49.602;8.722;2024-01-30T08:31:17;1.80;99.90
4651;DHT22;2338;49.602;8.722;2024-01-30T08:34:03;1.90;99.90
4651;DHT22;2338;49.602;8.722;2024-01-30T08:36:48;1.90;99.90
4651;DHT22;2338;49.602;8.722;2024-01-30T08:39:34;2.00;99.90
4651;DHT22;2338;49.602;8.722;2024-01-30T08:42:20;2.10;99.90
4651;DHT22;2338;49.602;8.722;2024-01-30T08:45:09;2.10;99.90
4651;DHT22;2338;49.602;8.722;2024-01-30T08:47:55;2.20;99.90
4651;DHT22;2338;49.602;8.722;2024-01-30T08:50:40;2.40;99.90
4651;DHT22;2338;49.602;8.722;2024-01-30T08:53:26;2.50;99.90
4651;DHT22;2338;49.602;8.722;2024-01-30T08:56:12;2.40;99.90
4651;DHT22;2338;49.602;8.722;2024-01-30T08:58:57;2.60;99.90
4651;DHT22;2338;49.602;8.722;2024-01-30T09:01:45;2.60;99.90
4651;DHT22;2338;49.602;8.722;2024-01-30T09:04:32;2.60;99.90
4651;DHT22;2338;49.602;8.722;2024-01-30T09:07:17;2.70;99.90
4651;DHT22;2338;49.602;8.722;2024-01-30T09:10:04;2.60;99.90
4651;DHT22;2338;49.602;8.722;2024-01-30T09:12:50;2.70;99.90
4651;DHT22;2338;49.602;8.722;2024-01-30T09:15:35;2.80;99.90
4651;DHT22;2338;49.602;8.722;2024-01-30T09:18:22;2.80;99.90
4651;DHT22;2338;49.602;8.722;2024-01-30T09:21:08;2.90;99.90
4651;DHT22;2338;49.602;8.722;2024-01-30T09:23:54;2.90;99.90
4651;DHT22;2338;49.602;8.722;2024-01-30T09:26:40;3.00;99.90
4651;DHT22;2338;49.602;8.722;2024-01-30T09:29:25;3.00;99.90
4651;DHT22;2338;49.602;8.722;2024-01-30T09:32:11;3.00;99.90
4651;DHT22;2338;49.602;8.722;2024-01-30T09:34:58;3.10;99.90
4651;DHT22;2338;49.602;8.722;2024-01-30T09:37:44;3.20;99.90
4651;DHT22;2338;49.602;8.722;2024-01-30T09:40:30;3.30;99.90
4651;DHT22;2338;49.602;8.722;2024-01-30T09:43:17;3.40;99.90
4651;DHT22;2338;49.602;8.722;2024-01-30T09:46:06;3.50;99.90
4651;DHT22;2338;49.602;8.722;2024-01-30T09:48:54;3.60;99.90
4651;DHT22;2338;49.602;8.722;2024-01-30T09:51:42;3.50;99.90
4651;DHT22;2338;49.602;8.722;2024-01-30T09:54:29;3.60;99.90
4651;DHT22;2338;49.602;8.722;2024-01-30T09:57:15;3.70;99.90
4651;DHT22;2338;49.602;8.722;2024-01-30T10:00:01;3.80;99.90
4651;DHT22;2338;49.602;8.722;2024-01-30T10:02:48;3.90;99.90
4651;DHT22;2338;49.602;8.722;2024-01-30T10:05:35;4.00;99.90
4651;DHT22;2338;49.602;8.722;2024-01-30T10:08:23;4.10;99.90
4651;DHT22;2338;49.602;8.722;2024-01-30T10:11:09;4.20;99.90
4651;DHT22;2338;49.602;8.722;2024-01-30T10:13:55;4.20;99.90
4651;DHT22;2338;49.602;8.722;2024-01-30T10:16:40;4.40;99.90
4651;DHT22;2338;49.602;8.722;2024-01-30T10:19:26;4.50;99.90
4651;DHT22;2338;49.602;8.722;2024-01-30T10:22:12;4.60;99.90
4651;DHT22;2338;49.602;8.722;2024-01-30T10:25:00;4.70;99.90
4651;DHT22;2338;49.602;8.722;2024-01-30T10:27:46;4.70;99.90
4651;DHT22;2338;49.602;8.722;2024-01-30T10:30:32;4.80;99.90
4651;DHT22;2338;49.602;8.722;2024-01-30T10:33:18;4.90;99.90
4651;DHT22;2338;49.602;8.722;2024-01-30T10:36:05;5.00;99.90
4651;DHT22;2338;49.602;8.722;2024-01-30T10:38:51;5.10;99.90
4651;DHT22;2338;49.602;8.722;2024-01-30T10:41:43;5.20;99.90
4651;DHT22;2338;49.602;8.722;2024-01-30T10:44:30;5.30;99.90
4651;DHT22;2338;49.602;8.722;2024-01-30T10:47:25;5.50;99.90
4651;DHT22;2338;49.602;8.722;2024-01-30T10:50:11;5.60;99.90
4651;DHT22;2338;49.602;8.722;2024-01-30T10:52:59;5.70;99.90
4651;DHT22;2338;49.602;8.722;2024-01-30T10:55:45;5.80;99.90
4651;DHT22;2338;49.602;8.722;2024-01-30T10:58:33;5.90;99.90
4651;DHT22;2338;49.602;8.722;2024-01-30T11:01:19;5.90;99.90
4651;DHT22;2338;49.602;8.722;2024-01-30T11:04:07;6.00;99.90
4651;DHT22;2338;49.602;8.722;2024-01-30T11:06:54;6.10;99.90
4651;DHT22;2338;49.602;8.722;2024-01-30T11:09:40;6.30;99.90
4651;DHT22;2338;49.602;8.722;2024-01-30T11:12:26;6.50;99.90
4651;DHT22;2338;49.602;8.722;2024-01-30T11:15:14;6.80;99.90
4651;DHT22;2338;49.602;8.722;2024-01-30T11:18:00;7.00;99.90
4651;DHT22;2338;49.602;8.722;2024-01-30T11:20:47;7.10;99.90
4651;DHT22;2338;49.602;8.722;2024-01-30T11:23:34;7.50;99.90
4651;DHT22;2338;49.602;8.722;2024-01-30T11:26:27;7.80;99.90
4651;DHT22;2338;49.602;8.722;2024-01-30T11:29:13;8.00;99.90
4651;DHT22;2338;49.602;8.722;2024-01-30T11:32:00;8.10;99.90
4651;DHT22;2338;49.602;8.722;2024-01-30T11:34:47;8.20;99.90
4651;DHT22;2338;49.602;8.722;2024-01-30T11:37:36;8.40;99.90
4651;DHT22;2338;49.602;8.722;2024-01-30T11:40:22;8.50;99.90
4651;DHT22;2338;49.602;8.722;2024-01-30T11:43:10;8.70;99.90
4651;DHT22;2338;49.602;8.722;2024-01-30T11:45:56;8.80;99.90
4651;DHT22;2338;49.602;8.722;2024-01-30T11:48:43;8.80;99.90
4651;DHT22;2338;49.602;8.722;2024-01-30T11:51:30;8.90;99.90
4651;DHT22;2338;49.602;8.722;2024-01-30T11:54:16;9.00;99.90
4651;DHT22;2338;49.602;8.722;2024-01-30T11:57:02;9.20;99.90
4651;DHT22;2338;49.602;8.722;2024-01-30T11:59:48;9.30;99.90
4651;DHT22;2338;49.602;8.722;2024-01-30T12:02:33;9.30;99.90
4651;DHT22;2338;49.602;8.722;2024-01-30T12:05:21;9.40;99.90
4651;DHT22;2338;49.602;8.722;2024-01-30T12:08:07;9.40;99.90
4651;DHT22;2338;49.602;8.722;2024-01-30T12:10:56;9.50;99.90
4651;DHT22;2338;49.602;8.722;2024-01-30T12:13:43;9.50;99.90
4651;DHT22;2338;49.602;8.722;2024-01-30T12:16:29;9.60;99.90
4651;DHT22;2338;49.602;8.722;2024-01-30T12:19:21;9.60;99.90
4651;DHT22;2338;49.602;8.722;2024-01-30T12:22:10;9.60;99.90
4651;DHT22;2338;49.602;8.722;2024-01-30T12:24:57;9.60;99.90
4651;DHT22;2338;49.602;8.722;2024-01-30T12:27:44;9.60;99.90
4651;DHT22;2338;49.602;8.722;2024-01-30T12:30:30;9.70;99.90
4651;DHT22;2338;49.602;8.722;2024-01-30T12:33:16;9.70;99.90
4651;DHT22;2338;49.602;8.722;2024-01-30T12:36:03;9.70;99.90
4651;DHT22;2338;49.602;8.722;2024-01-30T12:38:50;9.70;99.90
4651;DHT22;2338;49.602;8.722;2024-01-30T12:41:36;9.80;99.90
4651;DHT22;2338;49.602;8.722;2024-01-30T12:44:22;9.80;99.90
4651;DHT22;2338;49.602;8.722;2024-01-30T12:47:09;9.90;99.90
4651;DHT22;2338;49.602;8.722;2024-01-30T12:49:55;9.90;99.90
4651;DHT22;2338;49.602;8.722;2024-01-30T12:52:40;10.00;99.90
4651;DHT22;2338;49.602;8.722;2024-01-30T12:55:27;10.00;99.90
4651;DHT22;2338;49.602;8.722;2024-01-30T12:58:14;10.00;99.90
4651;DHT22;2338;49.602;8.722;2024-01-30T13:01:00;10.00;99.90
4651;DHT22;2338;49.602;8.722;2024-01-30T13:03:45;10.10;99.90
4651;DHT22;2338;49.602;8.722;2024-01-30T13:06:31;10.10;99.90
4651;DHT22;2338;49.602;8.722;2024-01-30T13:09:17;10.10;99.90
4651;DHT22;2338;49.602;8.722;2024-01-30T13:12:04;10.20;99.90
4651;DHT22;2338;49.602;8.722;2024-01-30T13:14:51;10.30;99.90
4651;DHT22;2338;49.602;8.722;2024-01-30T13:17:37;10.30;99.90
4651;DHT22;2338;49.602;8.722;2024-01-30T13:20:22;10.50;99.90
4651;DHT22;2338;49.602;8.722;2024-01-30T13:23:08;10.50;99.90
4651;DHT22;2338;49.602;8.722;2024-01-30T13:25:54;10.60;99.90
4651;DHT22;2338;49.602;8.722;2024-01-30T13:28:43;10.70;99.90
4651;DHT22;2338;49.602;8.722;2024-01-30T13:31:29;10.80;99.90
4651;DHT22;2338;49.602;8.722;2024-01-30T13:34:14;10.80;99.90
4651;DHT22;2338;49.602;8.722;2024-01-30T13:37:00;10.80;99.90
4651;DHT22;2338;49.602;8.722;2024-01-30T13:39:46;10.80;99.90
4651;DHT22;2338;49.602;8.722;2024-01-30T13:42:32;10.80;99.90
4651;DHT22;2338;49.602;8.722;2024-01-30T13:45:19;10.80;99.90
4651;DHT22;2338;49.602;8.722;2024-01-30T13:48:06;10.80;99.90
4651;DHT22;2338;49.602;8.722;2024-01-30T13:50:51;10.80;99.90
4651;DHT22;2338;49.602;8.722;2024-01-30T13:53:37;10.80;99.90
4651;DHT22;2338;49.602;8.722;2024-01-30T13:56:23;10.70;99.90
4651;DHT22;2338;49.602;8.722;2024-01-30T13:59:09;10.70;99.90
4651;DHT22;2338;49.602;8.722;2024-01-30T14:01:56;10.60;99.90
4651;DHT22;2338;49.602;8.722;2024-01-30T14:04:41;10.60;99.90
4651;DHT22;2338;49.602;8.722;2024-01-30T14:07:27;10.60;99.90
4651;DHT22;2338;49.602;8.722;2024-01-30T14:10:13;10.50;99.90
4651;DHT22;2338;49.602;8.722;2024-01-30T14:12:59;10.40;99.90
4651;DHT22;2338;49.602;8.722;2024-01-30T14:15:45;10.40;99.90
4651;DHT22;2338;49.602;8.722;2024-01-30T14:18:31;10.40;99.90
4651;DHT22;2338;49.602;8.722;2024-01-30T14:21:17;10.30;99.90
4651;DHT22;2338;49.602;8.722;2024-01-30T14:24:03;10.30;99.90
4651;DHT22;2338;49.602;8.722;2024-01-30T14:26:49;10.30;99.90
4651;DHT22;2338;49.602;8.722;2024-01-30T14:29:35;10.30;99.90
4651;DHT22;2338;49.602;8.722;2024-01-30T14:32:21;10.30;99.90
4651;DHT22;2338;49.602;8.722;2024-01-30T14:35:09;10.30;99.90
4651;DHT22;2338;49.602;8.722;2024-01-30T14:37:54;10.20;99.90
4651;DHT22;2338;49.602;8.722;2024-01-30T14:40:42;10.20;99.90
4651;DHT22;2338;49.602;8.722;2024-01-30T14:43:27;10.10;99.90
4651;DHT22;2338;49.602;8.722;2024-01-30T14:46:13;10.10;99.90
4651;DHT22;2338;49.602;8.722;2024-01-30T14:48:59;10.00;99.90
4651;DHT22;2338;49.602;8.722;2024-01-30T14:51:49;10.00;99.90
4651;DHT22;2338;49.602;8.722;2024-01-30T14:54:34;9.90;99.90
4651;DHT22;2338;49.602;8.722;2024-01-30T14:57:20;9.90;99.90
4651;DHT22;2338;49.602;8.722;2024-01-30T15:00:07;9.90;99.90
4651;DHT22;2338;49.602;8.722;2024-01-30T15:02:53;9.80;99.90
4651;DHT22;2338;49.602;8.722;2024-01-30T15:05:39;9.70;99.90
4651;DHT22;2338;49.602;8.722;2024-01-30T15:08:26;9.70;99.90
4651;DHT22;2338;49.602;8.722;2024-01-30T15:11:11;9.60;99.90
4651;DHT22;2338;49.602;8.722;2024-01-30T15:13:57;9.60;99.90
4651;DHT22;2338;49.602;8.722;2024-01-30T15:16:43;9.50;99.90
4651;DHT22;2338;49.602;8.722;2024-01-30T15:19:28;9.50;99.90
4651;DHT22;2338;49.602;8.722;2024-01-30T15:22:14;9.40;99.90
4651;DHT22;2338;49.602;8.722;2024-01-30T15:25:01;9.30;99.90
4651;DHT22;2338;49.602;8.722;2024-01-30T15:27:47;9.30;99.90
4651;DHT22;2338;49.602;8.722;2024-01-30T15:30:33;9.20;99.90
4651;DHT22;2338;49.602;8.722;2024-01-30T15:33:18;9.20;99.90
4651;DHT22;2338;49.602;8.722;2024-01-30T15:36:05;9.20;99.90
4651;DHT22;2338;49.602;8.722;2024-01-30T15:38:50;9.10;99.90
4651;DHT22;2338;49.602;8.722;2024-01-30T15:41:37;9.10;99.90
4651;DHT22;2338;49.602;8.722;2024-01-30T15:44:23;9.00;99.90
4651;DHT22;2338;49.602;8.722;2024-01-30T15:47:09;9.00;99.90
4651;DHT22;2338;49.602;8.722;2024-01-30T15:49:54;8.90;99.90
4651;DHT22;2338;49.602;8.722;2024-01-30T15:52:40;8.90;99.90
4651;DHT22;2338;49.602;8.722;2024-01-30T15:55:26;8.80;99.90
4651;DHT22;2338;49.602;8.722;2024-01-30T15:58:13;8.80;99.90
4651;DHT22;2338;49.602;8.722;2024-01-30T16:00:59;8.70;99.90
4651;DHT22;2338;49.602;8.722;2024-01-30T16:03:46;8.70;99.90
4651;DHT22;2338;49.602;8.722;2024-01-30T16:06:32;8.60;99.90
4651;DHT22;2338;49.602;8.722;2024-01-30T16:09:17;8.60;99.90
4651;DHT22;2338;49.602;8.722;2024-01-30T16:12:03;8.60;99.90
4651;DHT22;2338;49.602;8.722;2024-01-30T16:14:50;8.50;99.90
4651;DHT22;2338;49.602;8.722;2024-01-30T16:17:35;8.50;99.90
4651;DHT22;2338;49.602;8.722;2024-01-30T16:20:21;8.50;99.90
4651;DHT22;2338;49.602;8.722;2024-01-30T16:23:07;8.50;99.90
4651;DHT22;2338;49.602;8.722;2024-01-30T16:25:53;8.40;99.90
4651;DHT22;2338;49.602;8.722;2024-01-30T16:28:38;8.40;99.90
4651;DHT22;2338;49.602;8.722;2024-01-30T16:31:26;8.30;99.90
4651;DHT22;2338;49.602;8.722;2024-01-30T16:34:11;8.30;99.90
4651;DHT22;2338;49.602;8.722;2024-01-30T16:36:57;8.30;99.90
4651;DHT22;2338;49.602;8.722;2024-01-30T16:39:43;8.30;99.90
4651;DHT22;2338;49.602;8.722;2024-01-30T16:42:28;8.20;99.90
4651;DHT22;2338;49.602;8.722;2024-01-30T16:45:14;8.20;99.90
4651;DHT22;2338;49.602;8.722;2024-01-30T16:48:01;8.30;99.90
4651;DHT22;2338;49.602;8.722;2024-01-30T16:50:46;8.20;99.90
4651;DHT22;2338;49.602;8.722;2024-01-30T16:53:32;8.20;99.90
4651;DHT22;2338;49.602;8.722;2024-01-30T16:56:20;8.30;99.90
4651;DHT22;2338;49.602;8.722;2024-01-30T16:59:06;8.50;99.90
4651;DHT22;2338;49.602;8.722;2024-01-30T17:01:52;8.40;99.90
4651;DHT22;2338;49.602;8.722;2024-01-30T17:04:39;8.40;99.90
4651;DHT22;2338;49.602;8.722;2024-01-30T17:07:24;8.60;99.90
4651;DHT22;2338;49.602;8.722;2024-01-30T17:10:10;8.80;99.90
4651;DHT22;2338;49.602;8.722;2024-01-30T17:12:57;8.80;99.90
4651;DHT22;2338;49.602;8.722;2024-01-30T17:15:44;8.90;99.90
4651;DHT22;2338;49.602;8.722;2024-01-30T17:18:30;8.90;99.90
4651;DHT22;2338;49.602;8.722;2024-01-30T17:21:18;9.00;99.90
4651;DHT22;2338;49.602;8.722;2024-01-30T17:24:04;9.10;99.90
4651;DHT22;2338;49.602;8.722;2024-01-30T17:26:51;9.20;99.90
4651;DHT22;2338;49.602;8.722;2024-01-30T17:29:37;9.40;99.90
4651;DHT22;2338;49.602;8.722;2024-01-30T17:32:23;9.50;99.90
4651;DHT22;2338;49.602;8.722;2024-01-30T17:35:09;9.50;99.90
4651;DHT22;2338;49.602;8.722;2024-01-30T17:37:57;9.50;99.90
4651;DHT22;2338;49.602;8.722;2024-01-30T17:40:43;9.50;99.90
4651;DHT22;2338;49.602;8.722;2024-01-30T17:43:28;9.60;99.90
4651;DHT22;2338;49.602;8.722;2024-01-30T17:46:14;9.50;99.90
4651;DHT22;2338;49.602;8.722;2024-01-30T17:49:00;9.50;99.90
4651;DHT22;2338;49.602;8.722;2024-01-30T17:51:46;9.40;99.90
4651;DHT22;2338;49.602;8.722;2024-01-30T17:54:33;9.20;99.90
4651;DHT22;2338;49.602;8.722;2024-01-30T17:57:18;9.20;99.90
4651;DHT22;2338;49.602;8.722;2024-01-30T18:00:05;9.10;99.90
4651;DHT22;2338;49.602;8.722;2024-01-30T18:02:51;9.00;99.90
4651;DHT22;2338;49.602;8.722;2024-01-30T18:05:37;9.10;99.90
4651;DHT22;2338;49.602;8.722;2024-01-30T18:08:22;9.10;99.90
4651;DHT22;2338;49.602;8.722;2024-01-30T18:11:09;9.10;99.90
4651;DHT22;2338;49.602;8.722;2024-01-30T18:13:55;9.20;99.90
4651;DHT22;2338;49.602;8.722;2024-01-30T18:16:41;9.20;99.90
4651;DHT22;2338;49.602;8.722;2024-01-30T18:19:26;9.20;99.90
4651;DHT22;2338;49.602;8.722;2024-01-30T18:22:12;9.20;99.90